createdAt,value
2018-10-07T00:00:49.071Z,90.90
2018-10-07T00:03:17.223Z,90.80
2018-10-07T00:05:46.207Z,91.30
2018-10-07T00:08:14.358Z,91.10
2018-10-07T00:10:42.523Z,91.00
2018-10-07T00:13:10.687Z,91.00
2018-10-07T00:15:38.904Z,91.00
2018-10-07T00:18:07.083Z,90.90
2018-10-07T00:20:35.259Z,90.70
2018-10-07T00:23:03.418Z,91.00
2018-10-07T00:25:31.583Z,91.10
2018-10-07T00:27:59.740Z,91.10
2018-10-07T00:30:27.894Z,91.00
2018-10-07T00:32:56.051Z,91.10
2018-10-07T00:35:24.207Z,91.40
2018-10-07T00:37:52.999Z,90.90
2018-10-07T00:40:21.162Z,91.10
2018-10-07T00:42:49.342Z,91.10
2018-10-07T00:45:17.511Z,91.20
2018-10-07T00:47:45.687Z,91.20
2018-10-07T00:50:13.851Z,90.90
2018-10-07T00:52:42.084Z,91.00
2018-10-07T00:55:10.277Z,91.10
2018-10-07T00:57:38.472Z,91.20
2018-10-07T01:00:07.371Z,91.00
2018-10-07T01:02:35.551Z,90.60
2018-10-07T01:05:03.722Z,90.50
2018-10-07T01:07:31.895Z,91.10
2018-10-07T01:10:00.067Z,91.30
2018-10-07T01:12:28.248Z,91.40
2018-10-07T01:14:56.411Z,91.40
2018-10-07T01:17:24.591Z,91.50
2018-10-07T01:19:52.758Z,91.60
2018-10-07T01:22:21.355Z,91.70
2018-10-07T01:24:49.558Z,91.70
2018-10-07T01:27:17.746Z,91.60
2018-10-07T01:29:45.959Z,91.40
2018-10-07T01:32:14.148Z,91.50
2018-10-07T01:34:42.339Z,91.50
2018-10-07T01:37:10.518Z,91.40
2018-10-07T01:39:38.696Z,91.50
2018-10-07T01:42:06.862Z,91.50
2018-10-07T01:44:35.034Z,91.40
2018-10-07T01:47:03.210Z,91.20
2018-10-07T01:49:31.386Z,91.30
2018-10-07T01:51:59.571Z,91.10
2018-10-07T01:54:27.739Z,91.30
2018-10-07T01:56:55.919Z,91.40
2018-10-07T01:59:24.099Z,91.30
2018-10-07T02:01:52.263Z,91.40
2018-10-07T02:04:20.468Z,91.10
2018-10-07T02:06:48.691Z,91.00
2018-10-07T02:09:16.884Z,90.50
2018-10-07T02:11:45.055Z,90.70
2018-10-07T02:14:13.230Z,90.50
2018-10-07T02:16:41.682Z,90.50
2018-10-07T02:19:09.863Z,90.20
2018-10-07T02:21:38.031Z,90.30
2018-10-07T02:24:06.211Z,90.70
2018-10-07T02:26:34.381Z,90.60
2018-10-07T02:29:02.558Z,90.80
2018-10-07T02:31:30.727Z,91.00
2018-10-07T02:33:58.903Z,91.00
2018-10-07T02:36:27.071Z,91.30
2018-10-07T02:38:55.255Z,91.30
2018-10-07T02:41:23.447Z,91.50
2018-10-07T02:43:51.653Z,91.40
2018-10-07T02:46:19.824Z,91.50
2018-10-07T02:48:47.999Z,91.50
2018-10-07T02:51:16.155Z,91.60
2018-10-07T02:53:44.319Z,91.70
2018-10-07T02:56:12.482Z,91.80
2018-10-07T02:58:40.638Z,91.70
2018-10-07T03:01:08.794Z,91.70
2018-10-07T03:03:36.955Z,91.80
2018-10-07T03:06:05.118Z,91.70
2018-10-07T03:08:33.282Z,91.90
2018-10-07T03:11:01.436Z,92.00
2018-10-07T03:13:29.591Z,92.00
2018-10-07T03:15:57.738Z,92.00
2018-10-07T03:18:25.923Z,92.10
2018-10-07T03:20:54.128Z,92.00
2018-10-07T03:23:22.508Z,92.00
2018-10-07T03:25:50.670Z,91.70
2018-10-07T03:28:18.834Z,91.40
2018-10-07T03:30:46.990Z,91.50
2018-10-07T03:33:15.543Z,91.40
2018-10-07T03:35:43.695Z,91.00
2018-10-07T03:38:11.875Z,90.70
2018-10-07T03:40:40.059Z,91.20
2018-10-07T03:43:08.269Z,91.70
2018-10-07T03:45:36.442Z,91.50
2018-10-07T03:48:04.614Z,91.00
2018-10-07T03:50:32.790Z,91.30
2018-10-07T03:53:00.984Z,91.60
2018-10-07T03:55:29.206Z,91.60
2018-10-07T03:57:57.532Z,91.70
2018-10-07T04:00:25.990Z,91.40
2018-10-07T04:02:54.155Z,91.70
2018-10-07T04:05:22.327Z,91.60
2018-10-07T04:07:50.494Z,91.50
2018-10-07T04:10:18.699Z,91.90
2018-10-07T04:12:46.868Z,91.90
2018-10-07T04:15:15.042Z,92.10
2018-10-07T04:17:43.214Z,91.60
2018-10-07T04:20:11.498Z,91.60
2018-10-07T04:22:39.672Z,91.60
2018-10-07T04:25:07.850Z,91.80
2018-10-07T04:27:36.030Z,92.00
2018-10-07T04:30:04.325Z,92.10
2018-10-07T04:32:32.512Z,92.10
2018-10-07T04:35:00.690Z,92.10
2018-10-07T04:37:28.858Z,92.10
2018-10-07T04:39:57.140Z,92.20
2018-10-07T04:42:25.199Z,92.40
2018-10-07T04:44:53.360Z,92.50
2018-10-07T04:47:21.514Z,92.30
2018-10-07T04:49:49.678Z,92.00
2018-10-07T04:52:17.827Z,92.00
2018-10-07T04:54:46.012Z,91.90
2018-10-07T04:57:14.167Z,91.90
2018-10-07T04:59:42.335Z,92.10
2018-10-07T05:02:10.491Z,92.30
2018-10-07T05:04:38.648Z,92.20
2018-10-07T05:07:06.929Z,92.40
2018-10-07T05:09:35.449Z,92.30
2018-10-07T05:12:05.530Z,92.30
2018-10-07T05:14:33.646Z,92.30
2018-10-07T05:17:02.094Z,92.50
2018-10-07T05:19:30.263Z,92.30
2018-10-07T05:21:58.418Z,92.50
2018-10-07T05:24:26.566Z,92.50
2018-10-07T05:26:54.727Z,92.60
2018-10-07T05:29:22.883Z,92.50
2018-10-07T05:31:51.043Z,92.60
2018-10-07T05:34:19.209Z,92.50
2018-10-07T05:36:47.370Z,92.60
2018-10-07T05:39:15.523Z,92.60
2018-10-07T05:41:43.702Z,92.70
2018-10-07T05:44:11.882Z,92.70
2018-10-07T05:46:40.057Z,92.60
2018-10-07T05:49:08.256Z,92.30
2018-10-07T05:51:36.440Z,92.50
2018-10-07T05:54:04.615Z,92.50
2018-10-07T05:56:32.774Z,92.80
2018-10-07T05:59:00.932Z,92.90
2018-10-07T06:01:30.564Z,92.70
2018-10-07T06:04:39.139Z,92.90
2018-10-07T06:07:07.314Z,92.70
2018-10-07T06:09:36.399Z,92.60
2018-10-07T06:12:04.603Z,92.70
2018-10-07T06:14:44.313Z,92.80
2018-10-07T06:17:12.476Z,92.80
2018-10-07T06:19:40.643Z,92.80
2018-10-07T06:22:08.806Z,92.50
2018-10-07T06:24:36.983Z,92.60
2018-10-07T06:27:06.267Z,92.80
2018-10-07T06:29:34.419Z,92.50
2018-10-07T06:32:02.583Z,92.30
2018-10-07T06:34:30.739Z,92.00
2018-10-07T06:36:58.898Z,91.90
2018-10-07T06:39:27.059Z,92.10
2018-10-07T06:41:55.255Z,92.50
2018-10-07T06:44:23.467Z,92.50
2018-10-07T06:46:51.685Z,92.80
2018-10-07T06:49:20.139Z,92.60
2018-10-07T06:51:48.515Z,92.60
2018-10-07T06:54:16.678Z,92.20
2018-10-07T06:56:44.862Z,92.30
2018-10-07T06:59:13.027Z,92.10
2018-10-07T07:01:41.202Z,92.00
2018-10-07T07:04:09.370Z,91.80
2018-10-07T07:06:37.637Z,92.30
2018-10-07T07:09:07.622Z,92.10
2018-10-07T07:11:36.072Z,92.20
2018-10-07T07:14:04.258Z,92.10
2018-10-07T07:16:32.591Z,92.50
2018-10-07T07:19:00.758Z,92.30
2018-10-07T07:21:28.974Z,92.50
2018-10-07T07:23:57.192Z,92.50
2018-10-07T07:26:25.599Z,92.50
2018-10-07T07:28:53.783Z,92.20
2018-10-07T07:31:21.992Z,92.10
2018-10-07T07:33:50.143Z,92.30
2018-10-07T07:36:18.327Z,92.20
2018-10-07T07:38:46.499Z,92.10
2018-10-07T07:41:14.677Z,92.00
2018-10-07T07:43:42.871Z,91.50
2018-10-07T07:46:11.051Z,92.10
2018-10-07T07:48:39.343Z,92.30
2018-10-07T07:51:07.727Z,91.90
2018-10-07T07:53:35.908Z,91.90
2018-10-07T07:56:04.071Z,92.30
2018-10-07T07:58:32.279Z,91.90
2018-10-07T08:01:00.480Z,92.20
2018-10-07T08:03:28.667Z,92.20
2018-10-07T08:05:56.838Z,91.90
2018-10-07T08:08:25.033Z,92.20
2018-10-07T08:10:53.239Z,92.30
2018-10-07T08:13:21.686Z,92.30
2018-10-07T08:15:49.859Z,91.90
2018-10-07T08:18:18.046Z,92.10
2018-10-07T08:20:46.226Z,92.30
2018-10-07T08:23:14.431Z,92.10
2018-10-07T08:25:42.579Z,91.70
2018-10-07T08:28:10.754Z,91.90
2018-10-07T08:30:39.094Z,91.40
2018-10-07T08:33:07.327Z,91.70
2018-10-07T08:35:35.532Z,91.10
2018-10-07T08:38:03.744Z,91.40
2018-10-07T08:40:31.964Z,91.50
2018-10-07T08:43:00.143Z,91.00
2018-10-07T08:45:28.311Z,91.20
2018-10-07T08:47:56.502Z,90.80
2018-10-07T08:50:24.675Z,90.60
2018-10-07T08:52:52.855Z,90.80
2018-10-07T08:55:21.027Z,90.70
2018-10-07T08:57:49.199Z,90.60
2018-10-07T09:00:17.394Z,90.20
2018-10-07T09:02:45.562Z,90.30
2018-10-07T09:05:13.735Z,89.90
2018-10-07T09:07:41.909Z,89.60
2018-10-07T09:10:10.083Z,89.70
2018-10-07T09:12:38.290Z,89.90
2018-10-07T09:15:06.532Z,89.10
2018-10-07T09:17:34.749Z,89.50
2018-10-07T09:20:03.055Z,89.60
2018-10-07T09:22:31.226Z,89.00
2018-10-07T09:24:59.404Z,88.80
2018-10-07T09:27:27.613Z,88.60
2018-10-07T09:29:55.792Z,88.20
2018-10-07T09:32:24.091Z,88.00
2018-10-07T09:34:52.314Z,87.70
2018-10-07T09:37:20.482Z,88.70
2018-10-07T09:39:48.699Z,87.20
2018-10-07T09:42:17.234Z,87.10
2018-10-07T09:44:45.626Z,86.40
2018-10-07T09:47:13.785Z,86.60
2018-10-07T09:49:41.947Z,88.00
2018-10-07T09:52:10.118Z,88.40
2018-10-07T09:54:38.327Z,86.80
2018-10-07T09:57:06.764Z,85.40
2018-10-07T09:59:34.924Z,85.80
2018-10-07T10:02:03.082Z,85.10
2018-10-07T10:04:31.317Z,85.50
2018-10-07T10:06:59.448Z,84.50
2018-10-07T10:09:27.578Z,84.60
2018-10-07T10:11:55.731Z,84.40
2018-10-07T10:14:23.897Z,83.60
2018-10-07T10:16:55.342Z,83.90
2018-10-07T10:19:36.059Z,84.60
2018-10-07T10:22:11.310Z,82.10
2018-10-07T10:24:49.116Z,84.40
2018-10-07T10:27:31.306Z,84.70
2018-10-07T10:30:04.966Z,82.80
2018-10-07T10:32:34.850Z,80.50
2018-10-07T10:35:12.663Z,82.30
2018-10-07T10:38:50.581Z,80.30
2018-10-07T10:41:24.207Z,79.10
2018-10-07T10:43:57.657Z,79.20
2018-10-07T10:46:32.192Z,82.00
2018-10-07T10:49:06.195Z,80.30
2018-10-07T10:51:50.139Z,80.70
2018-10-07T10:54:23.246Z,77.90
2018-10-07T10:56:59.046Z,77.90
2018-10-07T10:59:34.100Z,78.10
2018-10-07T11:02:27.895Z,80.60
2018-10-07T11:05:12.463Z,79.40
2018-10-07T11:07:59.216Z,78.80
2018-10-07T11:10:39.420Z,77.10
2018-10-07T11:15:22.155Z,77.80
2018-10-07T11:18:04.046Z,78.10
2018-10-07T11:23:22.411Z,81.00
2018-10-07T11:26:00.775Z,80.30
2018-10-07T11:28:44.427Z,76.70
2018-10-07T11:31:24.815Z,78.30
2018-10-07T11:35:33.172Z,79.50
2018-10-07T11:38:07.465Z,77.30
2018-10-07T11:41:00.803Z,77.90
2018-10-07T11:43:37.364Z,78.00
2018-10-07T11:46:17.728Z,76.20
2018-10-07T11:48:55.832Z,76.00
2018-10-07T11:51:34.804Z,75.10
2018-10-07T11:54:08.750Z,75.40
2018-10-07T11:56:37.661Z,75.30
2018-10-07T11:59:06.131Z,75.80
2018-10-07T12:01:34.709Z,77.50
2018-10-07T12:04:03.291Z,74.30
2018-10-07T12:06:31.700Z,77.80
2018-10-07T12:08:59.887Z,77.10
2018-10-07T12:11:28.363Z,75.50
2018-10-07T12:13:56.542Z,75.30
2018-10-07T12:16:24.854Z,74.90
2018-10-07T12:18:53.022Z,75.70
2018-10-07T12:21:21.206Z,72.20
2018-10-07T12:23:49.400Z,70.80
2018-10-07T12:26:17.591Z,71.50
2018-10-07T12:28:45.835Z,71.20
2018-10-07T12:31:13.967Z,71.00
2018-10-07T12:33:42.168Z,66.50
2018-10-07T12:36:10.384Z,66.10
2018-10-07T12:38:38.589Z,67.80
2018-10-07T12:41:06.825Z,67.20
2018-10-07T12:43:35.021Z,67.90
2018-10-07T12:46:03.201Z,66.50
2018-10-07T12:48:31.411Z,69.10
2018-10-07T12:50:59.591Z,68.90
2018-10-07T12:53:27.791Z,68.60
2018-10-07T12:55:55.994Z,68.90
2018-10-07T12:58:24.218Z,66.60
2018-10-07T13:00:52.375Z,64.10
2018-10-07T13:03:20.550Z,63.20
2018-10-07T13:05:48.714Z,64.90
2018-10-07T13:08:16.898Z,65.10
2018-10-07T13:10:45.067Z,62.40
2018-10-07T13:13:13.523Z,64.20
2018-10-07T13:15:42.059Z,61.60
2018-10-07T13:18:10.224Z,62.70
2018-10-07T13:20:38.424Z,60.00
2018-10-07T13:23:06.603Z,61.70
2018-10-07T13:25:34.774Z,62.40
2018-10-07T13:28:03.174Z,61.50
2018-10-07T13:30:31.359Z,63.00
2018-10-07T13:32:59.532Z,62.20
2018-10-07T13:35:27.740Z,60.30
2018-10-07T13:37:56.116Z,59.70
2018-10-07T13:40:24.353Z,58.90
2018-10-07T13:42:52.580Z,60.20
2018-10-07T13:45:20.772Z,60.20
2018-10-07T13:47:48.942Z,61.50
2018-10-07T13:50:17.122Z,62.30
2018-10-07T13:52:45.291Z,63.00
2018-10-07T13:55:13.507Z,65.20
2018-10-07T13:57:41.711Z,65.40
2018-10-07T14:00:10.011Z,65.50
2018-10-07T14:02:38.175Z,66.40
2018-10-07T14:05:06.511Z,67.20
2018-10-07T14:07:34.678Z,67.20
2018-10-07T14:10:02.858Z,69.10
2018-10-07T14:12:31.014Z,68.90
2018-10-07T14:14:59.200Z,67.30
2018-10-07T14:17:27.363Z,66.70
2018-10-07T14:19:55.537Z,66.30
2018-10-07T14:22:23.703Z,68.10
2018-10-07T14:24:51.895Z,66.70
2018-10-07T14:27:20.074Z,67.40
2018-10-07T14:29:48.247Z,68.00
2018-10-07T14:32:16.423Z,67.70
2018-10-07T14:34:44.587Z,66.60
2018-10-07T14:37:12.759Z,69.50
2018-10-07T14:39:40.927Z,68.60
2018-10-07T14:42:09.131Z,67.90
2018-10-07T14:44:37.376Z,69.90
2018-10-07T14:47:05.996Z,67.80
2018-10-07T14:49:34.235Z,69.80
2018-10-07T14:52:02.471Z,69.50
2018-10-07T14:54:30.660Z,70.30
2018-10-07T14:56:58.873Z,69.20
2018-10-07T14:59:27.075Z,69.20
2018-10-07T15:01:55.266Z,70.60
2018-10-07T15:04:23.463Z,69.70
2018-10-07T15:06:51.650Z,69.50
2018-10-07T15:09:19.843Z,71.30
2018-10-07T15:11:48.039Z,70.70
2018-10-07T15:14:16.219Z,70.90
2018-10-07T15:16:44.402Z,70.30
2018-10-07T15:19:12.583Z,72.00
2018-10-07T15:21:40.816Z,71.10
2018-10-07T15:24:08.964Z,70.20
2018-10-07T15:26:37.153Z,70.40
2018-10-07T15:29:05.335Z,69.50
2018-10-07T15:31:33.521Z,70.40
2018-10-07T15:34:01.698Z,69.90
2018-10-07T15:36:29.888Z,71.10
2018-10-07T15:38:58.071Z,71.40
2018-10-07T15:41:26.270Z,72.00
2018-10-07T15:43:54.451Z,71.50
2018-10-07T15:46:22.635Z,71.50
2018-10-07T15:48:50.818Z,72.40
2018-10-07T15:51:19.011Z,72.10
2018-10-07T15:53:47.195Z,72.40
2018-10-07T15:56:15.400Z,72.30
2018-10-07T15:58:43.616Z,72.80
2018-10-07T16:01:11.833Z,73.40
2018-10-07T16:03:40.068Z,72.90
2018-10-07T16:06:08.300Z,73.60
2018-10-07T16:08:36.501Z,73.70
2018-10-07T16:11:04.814Z,73.50
2018-10-07T16:13:32.994Z,75.00
2018-10-07T16:16:01.171Z,75.80
2018-10-07T16:18:29.451Z,76.80
2018-10-07T16:20:57.602Z,77.60
2018-10-07T16:23:26.048Z,77.40
2018-10-07T16:25:54.333Z,77.60
2018-10-07T16:28:22.696Z,77.90
2018-10-07T16:30:51.275Z,78.70
2018-10-07T16:33:19.460Z,77.80
2018-10-07T16:35:47.635Z,77.50
2018-10-07T16:38:15.823Z,77.10
2018-10-07T16:40:44.012Z,78.60
2018-10-07T16:43:12.203Z,78.20
2018-10-07T16:45:40.390Z,78.20
2018-10-07T16:48:08.608Z,77.10
2018-10-07T16:50:36.796Z,78.00
2018-10-07T16:53:04.991Z,78.20
2018-10-07T16:55:33.174Z,77.90
2018-10-07T16:58:01.370Z,78.00
2018-10-07T17:00:29.551Z,78.30
2018-10-07T17:02:57.739Z,78.90
2018-10-07T17:05:25.923Z,78.80
2018-10-07T17:07:54.118Z,79.10
2018-10-07T17:10:22.294Z,79.00
2018-10-07T17:12:50.559Z,78.80
2018-10-07T17:15:18.700Z,78.30
2018-10-07T17:17:46.917Z,79.30
2018-10-07T17:20:15.158Z,79.60
2018-10-07T17:22:43.409Z,80.40
2018-10-07T17:25:11.629Z,80.90
2018-10-07T17:27:39.988Z,81.30
2018-10-07T17:30:08.272Z,81.90
2018-10-07T17:32:36.559Z,82.40
2018-10-07T17:35:04.767Z,82.90
2018-10-07T17:37:32.951Z,83.00
2018-10-07T17:40:01.199Z,83.30
2018-10-07T17:42:29.559Z,84.10
2018-10-07T17:44:57.731Z,84.30
2018-10-07T17:47:25.935Z,84.60
2018-10-07T17:49:54.688Z,84.80
2018-10-07T17:52:23.015Z,85.10
2018-10-07T17:54:51.251Z,85.60
2018-10-07T17:57:19.375Z,85.90
2018-10-07T17:59:47.565Z,85.90
2018-10-07T18:02:15.750Z,86.40
2018-10-07T18:04:45.552Z,86.70
2018-10-07T18:07:13.791Z,86.80
2018-10-07T18:09:42.258Z,87.10
2018-10-07T18:12:10.908Z,87.30
2018-10-07T18:14:39.544Z,87.50
2018-10-07T18:17:07.777Z,87.60
2018-10-07T18:19:36.010Z,87.80
2018-10-07T18:22:04.242Z,87.90
2018-10-07T18:24:32.492Z,87.80
2018-10-07T18:27:00.755Z,88.20
2018-10-07T18:29:28.988Z,88.30
2018-10-07T18:31:57.184Z,88.60
2018-10-07T18:34:25.430Z,88.70
2018-10-07T18:36:53.673Z,88.70
2018-10-07T18:39:21.923Z,89.10
2018-10-07T18:41:50.120Z,89.30
2018-10-07T18:44:18.376Z,89.30
2018-10-07T18:46:46.637Z,89.60
2018-10-07T18:49:15.094Z,89.60
2018-10-07T18:51:43.172Z,89.70
2018-10-07T18:54:11.712Z,89.90
2018-10-07T18:56:41.079Z,90.00
2018-10-07T18:59:10.520Z,89.80
2018-10-07T19:01:38.789Z,89.80
2018-10-07T19:04:07.060Z,90.00
2018-10-07T19:06:35.812Z,89.90
2018-10-07T19:09:05.617Z,90.00
2018-10-07T19:11:33.847Z,90.00
2018-10-07T19:14:02.121Z,90.10
2018-10-07T19:16:30.267Z,90.20
2018-10-07T19:18:58.520Z,90.10
2018-10-07T19:21:26.864Z,90.10
2018-10-07T19:23:55.006Z,90.30
2018-10-07T19:26:23.638Z,90.30
2018-10-07T19:28:52.245Z,90.40
2018-10-07T19:31:20.483Z,90.40
2018-10-07T19:33:48.714Z,90.40
2018-10-07T19:36:16.899Z,90.50
2018-10-07T19:38:45.107Z,90.50
2018-10-07T19:41:13.474Z,90.50
2018-10-07T19:43:41.742Z,90.60
2018-10-07T19:46:09.959Z,90.50
2018-10-07T19:48:38.462Z,90.60
2018-10-07T19:51:06.890Z,90.60
2018-10-07T19:53:35.187Z,90.60
2018-10-07T19:56:03.393Z,90.70
2018-10-07T19:58:31.635Z,90.80
2018-10-07T20:00:59.905Z,90.80
2018-10-07T20:03:28.113Z,90.90
2018-10-07T20:05:56.339Z,91.00
2018-10-07T20:08:24.532Z,91.20
2018-10-07T20:10:52.733Z,91.10
2018-10-07T20:13:20.980Z,91.30
2018-10-07T20:15:49.164Z,91.40
2018-10-07T20:18:17.432Z,91.30
2018-10-07T20:20:45.637Z,91.20
2018-10-07T20:23:13.851Z,91.20
2018-10-07T20:25:42.090Z,91.30
2018-10-07T20:28:10.317Z,91.40
2018-10-07T20:30:39.180Z,91.40
2018-10-07T20:33:07.435Z,91.50
2018-10-07T20:35:35.669Z,91.40
2018-10-07T20:38:03.891Z,91.50
2018-10-07T20:40:32.255Z,91.40
2018-10-07T20:43:00.492Z,91.40
2018-10-07T20:45:28.768Z,91.30
2018-10-07T20:47:56.970Z,91.30
2018-10-07T20:50:25.590Z,91.30
2018-10-07T20:52:53.697Z,91.30
2018-10-07T20:55:21.895Z,91.30
2018-10-07T20:57:50.082Z,91.50
2018-10-07T21:00:18.550Z,91.40
2018-10-07T21:02:46.866Z,91.50
2018-10-07T21:05:14.939Z,91.40
2018-10-07T21:07:43.127Z,91.40
2018-10-07T21:10:11.299Z,91.40
2018-10-07T21:12:39.511Z,91.50
2018-10-07T21:15:07.713Z,91.50
2018-10-07T21:17:35.929Z,91.50
2018-10-07T21:20:04.095Z,91.50
2018-10-07T21:22:32.452Z,91.40
2018-10-07T21:25:00.994Z,91.50
2018-10-07T21:27:29.175Z,91.50
2018-10-07T21:29:57.352Z,91.50
2018-10-07T21:32:25.655Z,91.50
2018-10-07T21:34:53.822Z,91.50
2018-10-07T21:37:22.006Z,91.70
2018-10-07T21:39:50.326Z,91.90
2018-10-07T21:42:18.546Z,91.80
2018-10-07T21:44:46.736Z,91.80
2018-10-07T21:47:14.936Z,91.80
2018-10-07T21:49:43.144Z,91.80
2018-10-07T21:52:11.331Z,91.80
2018-10-07T21:54:39.643Z,91.70
2018-10-07T21:57:07.843Z,91.70
2018-10-07T21:59:36.031Z,91.90
2018-10-07T22:02:04.298Z,91.80
2018-10-07T22:04:32.995Z,91.80
2018-10-07T22:07:01.195Z,91.90
2018-10-07T22:09:29.387Z,91.80
2018-10-07T22:11:57.563Z,91.80
2018-10-07T22:14:25.747Z,92.00
2018-10-07T22:16:53.943Z,92.40
2018-10-07T22:19:22.127Z,92.40
2018-10-07T22:21:50.320Z,92.40
2018-10-07T22:24:18.499Z,92.30
2018-10-07T22:26:46.687Z,92.20
2018-10-07T22:29:14.875Z,92.20
2018-10-07T22:31:43.063Z,92.10
2018-10-07T22:34:11.264Z,92.10
2018-10-07T22:36:39.447Z,92.10
2018-10-07T22:39:08.155Z,92.00
2018-10-07T22:41:36.631Z,92.30
2018-10-07T22:44:05.015Z,92.50
2018-10-07T22:46:33.190Z,92.70
2018-10-07T22:49:01.387Z,92.80
2018-10-07T22:51:29.602Z,92.80
2018-10-07T22:53:57.810Z,92.80
2018-10-07T22:56:26.028Z,92.90
2018-10-07T22:58:54.219Z,93.00
2018-10-07T23:01:22.410Z,93.10
2018-10-07T23:03:50.600Z,93.40
2018-10-07T23:06:18.786Z,93.60
2018-10-07T23:08:46.983Z,93.70
2018-10-07T23:11:15.170Z,93.70
2018-10-07T23:13:43.362Z,93.90
2018-10-07T23:16:11.555Z,94.00
2018-10-07T23:18:39.748Z,94.10
2018-10-07T23:21:07.933Z,94.20
2018-10-07T23:23:36.131Z,94.20
2018-10-07T23:26:04.322Z,94.30
2018-10-07T23:28:32.522Z,94.40
2018-10-07T23:31:00.711Z,94.30
2018-10-07T23:33:28.906Z,94.40
2018-10-07T23:35:57.099Z,94.30
2018-10-07T23:38:25.283Z,94.40
2018-10-07T23:40:54.727Z,94.40
2018-10-07T23:43:22.908Z,94.40
2018-10-07T23:45:51.118Z,94.50
2018-10-07T23:48:19.344Z,94.60
2018-10-07T23:50:47.564Z,94.20
2018-10-07T23:53:15.779Z,94.30
2018-10-07T23:55:43.970Z,94.20
2018-10-07T23:58:12.254Z,94.40
